Time;durP1;ratioP1;P1;durP2;ratioP2;P2;SDS_P1;SDS_P2;PMS_P1;PMS_P2;Temp;Humidity;BMP_temperature;BMP_pressure;BME280_temperature;BME280_humidity;BME280_pressure;Samples;Min_cycle;Max_cycle;Signal;HPM_P1;HPM_P2
2022/09/04 00:00:43;;;;;;;;;;;;;;;22.44;54.46;101235.69;2299680;77;51465;-73
2022/09/04 00:03:55;;;;;;;;;;;;;;;22.47;54.52;101251.48;2267584;77;51064;-72
2022/09/04 00:07:08;;;;;;;;;;;;;;;22.45;54.45;101242.74;2300462;76;51516;-72
2022/09/04 00:10:11;;;;;;;;;;;;;;;22.38;55.13;101250.27;2263403;77;50758;-72
2022/09/04 00:13:22;;;;;;;;;;;;;;;22.39;55.15;101247.05;2279779;77;51558;-72
2022/09/04 00:16:28;;;;;;;;;;;;;;;22.36;55.07;101241.53;2273629;76;52586;-72
2022/09/04 00:19:31;;;;;;;;;;;;;;;22.35;55.08;101239.88;2300706;76;51635;-73
2022/09/04 00:22:51;;;;;;;;;;;;;;;22.38;54.93;101241.35;2300669;76;50354;-72
2022/09/04 00:26:11;;;;;;;;;;;;;;;22.36;55.05;101242.88;2300523;76;50678;-72
2022/09/04 00:29:14;;;;;;;;;;;;;;;22.37;55.03;101236.45;2300682;76;50429;-72
2022/09/04 00:32:20;;;;;;;;;;;;;;;22.37;55.05;101236.97;2300708;76;50529;-72
2022/09/04 00:35:26;;;;;;;;;;;;;;;22.36;55.05;101235.31;2300645;76;50323;-71
2022/09/04 00:38:35;;;;;;;;;;;;;;;22.36;54.98;101243.41;2300472;76;51544;-73
2022/09/04 00:41:55;;;;;;;;;;;;;;;22.37;55.20;101242.36;2292990;76;49600;-72
2022/09/04 00:44:58;;;;;;;;;;;;;;;22.36;55.11;101252.32;2294295;77;50766;-72
2022/09/04 00:48:04;;;;;;;;;;;;;;;22.35;55.17;101253.36;2288659;76;50736;-72
2022/09/04 00:51:22;;;;;;;;;;;;;;;22.35;55.11;101250.66;2292434;76;52064;-73
2022/09/04 00:54:44;;;;;;;;;;;;;;;22.36;55.09;101259.06;2292524;77;50442;-73
2022/09/04 00:58:04;;;;;;;;;;;;;;;22.37;55.06;101260.72;2292210;77;51602;-73
2022/09/04 01:01:05;;;;;;;;;;;;;;;22.36;55.02;101267.15;2300533;76;51527;-73
2022/09/04 01:04:12;;;;;;;;;;;;;;;22.35;55.13;101263.28;2300610;76;51499;-73
2022/09/04 01:07:25;;;;;;;;;;;;;;;22.36;54.94;101259.06;2267291;77;51282;-72
2022/09/04 01:10:40;;;;;;;;;;;;;;;22.37;54.88;101259.38;2300675;76;51661;-73
2022/09/04 01:13:46;;;;;;;;;;;;;;;22.38;54.84;101266.45;2297815;76;50351;-73
2022/09/04 01:17:08;;;;;;;;;;;;;;;22.38;54.86;101267.80;2293960;77;50272;-72
2022/09/04 01:20:11;;;;;;;;;;;;;;;22.38;54.93;101273.19;2292550;76;50364;-73
2022/09/04 01:23:17;;;;;;;;;;;;;;;22.39;55.00;101276.20;2292461;77;51568;-73
2022/09/04 01:26:21;;;;;;;;;;;;;;;22.37;55.09;101279.59;2292130;77;51560;-73
2022/09/04 01:29:24;;;;;;;;;;;;;;;22.39;54.90;101273.50;2292353;76;51687;-73
2022/09/04 01:32:30;;;;;;;;;;;;;;;22.40;55.03;101271.63;2259258;77;50961;-73
2022/09/04 01:35:36;;;;;;;;;;;;;;;22.43;54.98;101278.50;2292355;77;52893;-73
2022/09/04 01:38:42;;;;;;;;;;;;;;;22.43;54.97;101275.80;2292320;76;51582;-72
2022/09/04 01:41:45;;;;;;;;;;;;;;;22.39;54.97;101277.55;2292356;77;51566;-73
2022/09/04 01:44:47;;;;;;;;;;;;;;;22.38;55.01;101277.23;2261348;77;50107;-73
2022/09/04 01:47:49;;;;;;;;;;;;;;;22.41;54.76;101280.58;2291834;76;50419;-73
2022/09/04 01:50:51;;;;;;;;;;;;;;;22.41;54.69;101280.06;2292429;76;51532;-73
2022/09/04 01:53:55;;;;;;;;;;;;;;;22.43;54.65;101279.84;2292437;76;50783;-73
2022/09/04 01:57:01;;;;;;;;;;;;;;;22.41;54.74;101288.15;2292142;77;50805;-73
2022/09/04 02:00:10;;;;;;;;;;;;;;;22.41;54.54;101281.92;2297586;76;50519;-73
2022/09/04 02:03:13;;;;;;;;;;;;;;;22.41;54.63;101279.23;2300613;76;50688;-72
2022/09/04 02:06:22;;;;;;;;;;;;;;;22.37;54.46;101281.45;2300303;76;51700;-72
2022/09/04 02:09:28;;;;;;;;;;;;;;;22.36;54.78;101281.16;2267440;77;52806;-72
2022/09/04 02:12:35;;;;;;;;;;;;;;;22.37;54.76;101278.24;2287842;76;50799;-72
2022/09/04 02:15:48;;;;;;;;;;;;;;;22.36;55.04;101273.89;2295216;77;50442;-72
2022/09/04 02:18:50;;;;;;;;;;;;;;;22.37;54.91;101272.85;2292435;76;50676;-71
2022/09/04 02:22:00;;;;;;;;;;;;;;;22.36;54.92;101273.89;2259361;77;51182;-72
2022/09/04 02:25:12;;;;;;;;;;;;;;;22.35;54.99;101276.28;2292460;77;50289;-72
2022/09/04 02:28:15;;;;;;;;;;;;;;;22.34;55.01;101277.28;2292290;77;51664;-72
2022/09/04 02:31:24;;;;;;;;;;;;;;;22.35;55.00;101274.93;2292478;76;51535;-72
2022/09/04 02:34:28;;;;;;;;;;;;;;;22.34;55.08;101274.59;2292194;77;51687;-72
2022/09/04 02:37:40;;;;;;;;;;;;;;;22.37;55.11;101280.11;2292209;77;50272;-72
2022/09/04 02:40:50;;;;;;;;;;;;;;;22.36;55.18;101278.45;2292643;76;51547;-72
2022/09/04 02:43:53;;;;;;;;;;;;;;;22.35;55.18;101278.98;2296278;76;50497;-72
2022/09/04 02:47:03;;;;;;;;;;;;;;;22.36;55.07;101275.76;2260768;77;51096;-72
2022/09/04 02:50:13;;;;;;;;;;;;;;;22.36;54.92;101279.28;2292347;76;51509;-72
2022/09/04 02:53:25;;;;;;;;;;;;;;;22.35;54.84;101280.33;2292606;77;51598;-72
2022/09/04 02:56:45;;;;;;;;;;;;;;;22.35;55.10;101282.16;2292157;77;50791;-71
2022/09/04 03:00:08;;;;;;;;;;;;;;;22.34;55.09;101284.55;2263847;77;49723;-72
2022/09/04 03:03:19;;;;;;;;;;;;;;;22.34;55.00;101288.59;2319127;75;22363;-72
2022/09/04 03:06:23;;;;;;;;;;;;;;;22.33;54.99;101289.11;2300502;76;50490;-73
2022/09/04 03:09:26;;;;;;;;;;;;;;;22.35;54.53;101291.11;2301616;75;51524;-71
2022/09/04 03:12:35;;;;;;;;;;;;;;;22.32;54.76;101284.73;2267100;77;52290;-72
2022/09/04 03:15:44;;;;;;;;;;;;;;;22.33;54.56;101274.28;2295283;77;51495;-72
2022/09/04 03:18:50;;;;;;;;;;;;;;;22.33;54.69;101276.98;2292298;76;50755;-72
2022/09/04 03:21:53;;;;;;;;;;;;;;;22.33;54.63;101282.38;2292600;77;50786;-72
2022/09/04 03:25:06;;;;;;;;;;;;;;;22.30;54.72;101279.20;2259792;77;49590;-72
2022/09/04 03:28:08;;;;;;;;;;;;;;;22.30;54.65;101281.41;2292081;76;50715;-72
2022/09/04 03:31:11;;;;;;;;;;;;;;;22.30;54.90;101282.77;2292479;76;51500;-72
2022/09/04 03:34:27;;;;;;;;;;;;;;;22.32;54.79;101283.38;2292213;77;50688;-72
2022/09/04 03:37:39;;;;;;;;;;;;;;;22.32;54.81;101287.94;2292298;77;55578;-72
2022/09/04 03:40:51;;;;;;;;;;;;;;;22.29;54.90;101295.91;2292482;76;50420;-72
2022/09/04 03:43:57;;;;;;;;;;;;;;;22.29;54.90;101289.69;2296403;76;50925;-71
2022/09/04 03:47:00;;;;;;;;;;;;;;;22.29;54.93;101295.91;2260438;77;51349;-72
2022/09/04 03:50:16;;;;;;;;;;;;;;;22.29;54.91;101297.77;2259304;77;51003;-71
2022/09/04 03:53:22;;;;;;;;;;;;;;;22.30;54.71;101294.89;2292427;77;50845;-72
2022/09/04 03:56:41;;;;;;;;;;;;;;;22.28;54.83;101294.25;2293242;77;50445;-73
2022/09/04 03:59:47;;;;;;;;;;;;;;;22.31;54.62;101298.42;2289733;77;50293;-73
2022/09/04 04:02:53;;;;;;;;;;;;;;;22.27;54.69;101297.98;2267774;77;51067;-72
2022/09/04 04:06:06;;;;;;;;;;;;;;;22.28;54.62;101303.68;2288063;76;50480;-73
2022/09/04 04:09:26;;;;;;;;;;;;;;;22.26;54.81;101300.33;2300626;76;50780;-73
2022/09/04 04:12:29;;;;;;;;;;;;;;;22.25;55.07;101309.46;2300769;77;51687;-73
2022/09/04 04:15:49;;;;;;;;;;;;;;;22.24;55.20;101322.59;2267748;77;50122;-73
2022/09/04 04:18:55;;;;;;;;;;;;;;;22.26;55.26;101317.86;2300578;76;51585;-73
2022/09/04 04:22:01;;;;;;;;;;;;;;;22.25;55.39;101321.59;2300751;76;50404;-73
2022/09/04 04:25:04;;;;;;;;;;;;;;;22.26;55.33;101315.16;2300890;76;50247;-73
2022/09/04 04:28:08;;;;;;;;;;;;;;;22.25;55.33;101321.59;2258496;77;49563;-72
2022/09/04 04:31:13;;;;;;;;;;;;;;;22.28;55.22;101309.08;2292596;76;51460;-72
2022/09/04 04:34:23;;;;;;;;;;;;;;;22.29;55.22;101316.13;2292529;76;52165;-72
2022/09/04 04:37:32;;;;;;;;;;;;;;;22.30;55.15;101325.04;2290259;77;50714;-73
2022/09/04 04:40:47;;;;;;;;;;;;;;;22.29;55.19;101330.95;2259517;77;52920;-72
2022/09/04 04:44:02;;;;;;;;;;;;;;;22.30;55.19;101323.69;2292578;77;51458;-72
2022/09/04 04:47:10;;;;;;;;;;;;;;;22.29;55.18;101328.25;2292371;77;52393;-73
2022/09/04 04:50:19;;;;;;;;;;;;;;;22.29;55.05;101330.12;2292539;76;49986;-72
2022/09/04 04:53:34;;;;;;;;;;;;;;;22.29;55.06;101340.39;2259412;77;51278;-74
2022/09/04 04:56:54;;;;;;;;;;;;;;;22.31;54.92;101341.55;2295779;77;51511;-73
2022/09/04 05:00:02;;;;;;;;;;;;;;;22.29;54.95;101345.78;2297282;77;50160;-73
2022/09/04 05:03:05;;;;;;;;;;;;;;;22.29;55.10;101343.08;2294708;76;22417;-73
2022/09/04 05:06:08;;;;;;;;;;;;;;;22.28;54.66;101343.30;2267637;76;52578;-73
2022/09/04 05:09:18;;;;;;;;;;;;;;;22.29;54.07;101356.56;2300602;76;51618;-73
2022/09/04 05:12:38;;;;;;;;;;;;;;;22.25;54.51;101352.59;2300583;76;51345;-73
2022/09/04 05:15:44;;;;;;;;;;;;;;;22.23;55.18;101356.50;2300701;76;51480;-73
2022/09/04 05:18:59;;;;;;;;;;;;;;;22.25;55.08;101366.08;2267228;77;51876;-72
2022/09/04 05:22:06;;;;;;;;;;;;;;;22.22;54.96;101373.69;2300677;76;50245;-74
2022/09/04 05:25:12;;;;;;;;;;;;;;;22.24;54.75;101381.91;2300679;76;50422;-73
2022/09/04 05:28:30;;;;;;;;;;;;;;;22.25;55.10;101386.30;2307817;75;50421;-73
2022/09/04 05:31:51;;;;;;;;;;;;;;;22.27;55.17;101392.34;2267318;77;51100;-73
2022/09/04 05:34:58;;;;;;;;;;;;;;;22.31;54.90;101396.31;2299796;76;50438;-73
2022/09/04 05:38:19;;;;;;;;;;;;;;;22.41;54.80;101401.92;2293294;77;53693;-74
2022/09/04 05:41:25;;;;;;;;;;;;;;;22.50;54.71;101414.25;2295774;76;51648;-73
2022/09/04 05:44:28;;;;;;;;;;;;;;;22.59;54.54;101414.46;2261821;77;52691;-74
2022/09/04 05:47:48;;;;;;;;;;;;;;;22.66;54.17;101416.72;2295399;76;51503;-73
2022/09/04 05:50:54;;;;;;;;;;;;;;;22.73;53.90;101421.65;2295749;76;50247;-74
2022/09/04 05:54:14;;;;;;;;;;;;;;;22.73;53.34;101420.30;2295707;77;50404;-74
2022/09/04 05:57:34;;;;;;;;;;;;;;;22.75;53.48;101429.56;2263143;77;50118;-74
2022/09/04 06:00:46;;;;;;;;;;;;;;;22.76;53.35;101432.57;2292473;76;50420;-74
2022/09/04 06:03:52;;;;;;;;;;;;;;;22.74;53.37;101424.69;2298921;77;50777;-74
2022/09/04 06:07:08;;;;;;;;;;;;;;;22.71;53.77;101433.66;2296889;77;50420;-73
2022/09/04 06:10:29;;;;;;;;;;;;;;;22.65;53.79;101439.31;2265550;77;51475;-73
2022/09/04 06:13:36;;;;;;;;;;;;;;;22.65;53.74;101439.83;2298948;77;51553;-73
2022/09/04 06:16:45;;;;;;;;;;;;;;;22.61;54.05;101446.13;2298549;77;50329;-73
2022/09/04 06:20:04;;;;;;;;;;;;;;;22.60;54.16;101447.14;2297463;76;50512;-73
2022/09/04 06:23:08;;;;;;;;;;;;;;;22.59;54.43;101458.97;2265548;77;51217;-73
2022/09/04 06:26:28;;;;;;;;;;;;;;;22.58;54.61;101460.84;2298894;77;50443;-73
2022/09/04 06:29:47;;;;;;;;;;;;;;;22.63;54.36;101452.15;2283035;76;52382;-73
2022/09/04 06:33:09;;;;;;;;;;;;;;;22.71;54.07;101456.10;2292575;77;50446;-74
2022/09/04 06:36:15;;;;;;;;;;;;;;;22.78;53.91;101452.11;2259338;77;51031;-74
2022/09/04 06:39:21;;;;;;;;;;;;;;;22.75;53.85;101458.72;2292553;76;50357;-74
2022/09/04 06:42:43;;;;;;;;;;;;;;;22.72;53.80;101448.32;2292638;77;50604;-73
2022/09/04 06:45:52;;;;;;;;;;;;;;;22.77;53.69;101458.03;2292500;77;50484;-73
2022/09/04 06:49:08;;;;;;;;;;;;;;;22.78;53.62;101459.69;2291962;76;51748;-73
2022/09/04 06:52:18;;;;;;;;;;;;;;;22.85;53.40;101464.34;2292513;77;50284;-74
2022/09/04 06:55:21;;;;;;;;;;;;;;;22.86;53.30;101461.95;2293191;76;51543;-75
2022/09/04 06:58:25;;;;;;;;;;;;;;;22.96;53.04;101461.11;2295716;77;50688;-73
2022/09/04 07:01:31;;;;;;;;;;;;;;;23.00;53.19;101475.94;2300764;76;50780;-74
2022/09/04 07:04:34;;;;;;;;;;;;;;;22.97;53.24;101473.63;2300750;76;50557;-73
2022/09/04 07:07:40;;;;;;;;;;;;;;;22.99;53.19;101480.52;2300520;77;50461;-73
2022/09/04 07:10:43;;;;;;;;;;;;;;;23.04;52.92;101470.46;2300367;76;50450;-73
2022/09/04 07:13:46;;;;;;;;;;;;;;;23.11;52.66;101483.52;2262748;77;52555;-73
2022/09/04 07:16:50;;;;;;;;;;;;;;;23.13;52.82;101482.81;2292400;77;51510;-73
2022/09/04 07:19:59;;;;;;;;;;;;;;;23.08;53.21;101487.95;2292582;76;51654;-73
2022/09/04 07:23:05;;;;;;;;;;;;;;;23.06;53.27;101491.88;2292484;77;51612;-72
2022/09/04 07:26:12;;;;;;;;;;;;;;;23.14;53.03;101484.99;2293035;77;50332;-72
2022/09/04 07:29:15;;;;;;;;;;;;;;;23.16;52.20;101486.47;2298705;77;50714;-72
2022/09/04 07:32:30;;;;;;;;;;;;;;;23.15;51.58;101479.41;2300667;77;50775;-72
2022/09/04 07:35:36;;;;;;;;;;;;;;;23.15;51.33;101486.16;2295964;77;51130;-73
2022/09/04 07:38:52;;;;;;;;;;;;;;;23.10;51.26;101481.86;2262584;76;52511;-73
2022/09/04 07:41:55;;;;;;;;;;;;;;;23.11;51.59;101490.78;2295926;77;50347;-72
2022/09/04 07:45:07;;;;;;;;;;;;;;;23.11;51.48;101490.27;2295925;77;51378;-73
2022/09/04 07:48:16;;;;;;;;;;;;;;;23.14;51.42;101475.55;2260224;77;50214;-77
2022/09/04 07:51:20;;;;;;;;;;;;;;;23.13;51.49;101477.41;2295949;76;51439;-76
2022/09/04 07:54:26;;;;;;;;;;;;;;;23.15;51.63;101490.22;2295869;77;50689;-76
2022/09/04 07:57:40;;;;;;;;;;;;;;;23.16;51.73;101495.09;2296350;77;50225;-77
2022/09/04 08:00:43;;;;;;;;;;;;;;;23.18;52.04;101496.57;2299546;76;50371;-78
2022/09/04 08:03:49;;;;;;;;;;;;;;;23.20;51.96;101494.52;2268074;77;51348;-76
2022/09/04 08:06:52;;;;;;;;;;;;;;;23.20;52.09;101505.32;2300485;76;50804;-76
2022/09/04 08:09:55;;;;;;;;;;;;;;;23.25;52.00;101506.09;2300811;76;50287;-75
2022/09/04 08:13:08;;;;;;;;;;;;;;;23.25;51.99;101510.98;2299251;76;50439;-74
2022/09/04 08:16:16;;;;;;;;;;;;;;;23.24;52.16;101517.91;2285226;77;49650;-74
2022/09/04 08:19:25;;;;;;;;;;;;;;;23.22;52.00;101519.47;2260777;77;22777;-73
2022/09/04 08:22:45;;;;;;;;;;;;;;;23.24;51.67;101521.95;2260570;77;49985;-73
2022/09/04 08:25:57;;;;;;;;;;;;;;;23.21;51.79;101519.65;2260423;78;50349;-73
2022/09/04 08:29:16;;;;;;;;;;;;;;;23.19;51.65;101529.80;2228305;78;51145;-71
2022/09/04 08:32:31;;;;;;;;;;;;;;;23.19;51.52;101522.53;2260673;77;50806;-72
2022/09/04 08:35:33;;;;;;;;;;;;;;;23.16;51.60;101521.57;2260521;78;50367;-72
2022/09/04 08:38:39;;;;;;;;;;;;;;;23.15;51.42;101526.66;2260313;77;50349;-72
2022/09/04 08:41:48;;;;;;;;;;;;;;;23.13;51.34;101531.41;2231222;77;49599;-75
2022/09/04 08:45:10;;;;;;;;;;;;;;;23.12;51.23;101531.59;2295134;77;50765;-75
2022/09/04 08:48:31;;;;;;;;;;;;;;;23.09;51.35;101527.41;2292332;77;51575;-75
2022/09/04 08:51:49;;;;;;;;;;;;;;;23.09;51.38;101532.81;2292518;76;50758;-75
2022/09/04 08:55:10;;;;;;;;;;;;;;;23.05;51.50;101522.09;2292557;77;50296;-75
2022/09/04 08:58:25;;;;;;;;;;;;;;;23.05;51.45;101527.48;2292474;77;50391;-75
2022/09/04 09:01:38;;;;;;;;;;;;;;;23.01;51.52;101520.79;2300624;76;50536;-75
2022/09/04 09:04:42;;;;;;;;;;;;;;;23.02;51.46;101515.73;2300600;76;50539;-75
2022/09/04 09:07:58;;;;;;;;;;;;;;;23.00;51.44;101525.88;2267090;76;50998;-75
2022/09/04 09:11:02;;;;;;;;;;;;;;;22.98;51.50;101525.23;2300647;77;50314;-74
2022/09/04 09:14:17;;;;;;;;;;;;;;;22.96;51.46;101525.37;2296045;76;51508;-74
2022/09/04 09:17:21;;;;;;;;;;;;;;;22.96;51.49;101529.94;2292226;77;50039;-75
2022/09/04 09:20:25;;;;;;;;;;;;;;;22.96;51.54;101524.02;2250338;77;50111;-74
2022/09/04 09:23:34;;;;;;;;;;;;;;;22.98;51.56;101529.27;2297491;77;50838;-75
2022/09/04 09:26:43;;;;;;;;;;;;;;;22.97;51.56;101523.56;2283177;77;50363;-75
2022/09/04 09:29:48;;;;;;;;;;;;;;;22.96;51.58;101523.19;2253301;76;22238;-75
2022/09/04 09:33:00;;;;;;;;;;;;;;;22.96;51.58;101527.23;2263049;77;49632;-76
2022/09/04 09:36:06;;;;;;;;;;;;;;;22.94;51.60;101515.80;2295731;77;50425;-75
2022/09/04 09:39:26;;;;;;;;;;;;;;;22.93;51.59;101526.28;2295750;76;53722;-75
2022/09/04 09:42:36;;;;;;;;;;;;;;;22.91;51.65;101522.93;2295107;77;51608;-75
2022/09/04 09:45:43;;;;;;;;;;;;;;;22.89;51.74;101515.53;2294503;77;22351;-75
2022/09/04 09:48:49;;;;;;;;;;;;;;;22.90;51.67;101514.52;2292197;76;50798;-75
2022/09/04 09:51:52;;;;;;;;;;;;;;;22.90;51.60;101518.57;2292450;76;50463;-75
2022/09/04 09:55:12;;;;;;;;;;;;;;;22.87;51.62;101521.66;2292418;77;50415;-76
2022/09/04 09:58:17;;;;;;;;;;;;;;;22.86;51.48;101516.75;2261544;77;49733;-74
2022/09/04 10:01:23;;;;;;;;;;;;;;;22.87;51.41;101521.14;2292733;76;22469;-74
2022/09/04 10:04:43;;;;;;;;;;;;;;;22.85;51.39;101510.21;2296986;76;50856;-76
2022/09/04 10:07:55;;;;;;;;;;;;;;;22.80;51.42;101512.95;2262422;77;50144;-74
2022/09/04 10:11:15;;;;;;;;;;;;;;;22.83;51.27;101517.96;2243776;78;51640;-76
2022/09/04 10:14:35;;;;;;;;;;;;;;;22.80;51.27;101517.00;2294608;76;51489;-76
2022/09/04 10:17:55;;;;;;;;;;;;;;;22.79;51.28;101509.95;2262322;77;50424;-73
2022/09/04 10:21:14;;;;;;;;;;;;;;;22.81;51.20;101515.13;2262589;77;50465;-75
2022/09/04 10:24:34;;;;;;;;;;;;;;;22.78;51.18;101509.60;2280282;77;49290;-74
2022/09/04 10:27:45;;;;;;;;;;;;;;;22.81;51.04;101517.83;2262281;78;50294;-74
2022/09/04 10:31:06;;;;;;;;;;;;;;;22.81;51.09;101513.30;2262408;77;51550;-75
2022/09/04 10:34:28;;;;;;;;;;;;;;;22.82;51.11;101523.57;2243761;78;51348;-75
2022/09/04 10:37:34;;;;;;;;;;;;;;;22.81;51.12;101526.79;2243949;77;50725;-74
2022/09/04 10:40:38;;;;;;;;;;;;;;;22.78;51.08;101525.80;2262467;77;50467;-75
2022/09/04 10:43:56;;;;;;;;;;;;;;;22.81;51.02;101521.39;2286030;77;50250;-75
2022/09/04 10:46:59;;;;;;;;;;;;;;;22.79;51.16;101527.48;2293449;77;50510;-74
2022/09/04 10:50:03;;;;;;;;;;;;;;;22.77;51.17;101529.53;2292437;76;51587;-75
2022/09/04 10:53:12;;;;;;;;;;;;;;;22.76;51.18;101527.00;2292341;77;51552;-75
2022/09/04 10:56:22;;;;;;;;;;;;;;;22.76;51.18;101528.36;2292321;77;51515;-75
2022/09/04 10:59:42;;;;;;;;;;;;;;;22.76;51.14;101524.31;2292457;76;50718;-75
2022/09/04 11:02:48;;;;;;;;;;;;;;;22.78;51.09;101523.61;2259520;77;49687;-74
2022/09/04 11:06:01;;;;;;;;;;;;;;;22.75;51.17;101524.83;2292491;77;50458;-75
2022/09/04 11:09:05;;;;;;;;;;;;;;;22.78;51.03;101524.44;2292265;76;22339;-75
2022/09/04 11:12:17;;;;;;;;;;;;;;;22.76;51.13;101527.00;2293592;76;50778;-74
2022/09/04 11:15:21;;;;;;;;;;;;;;;22.76;51.08;101522.47;2278774;76;49315;-75
2022/09/04 11:18:42;;;;;;;;;;;;;;;22.75;51.06;101525.34;2300314;77;50472;-75
2022/09/04 11:21:45;;;;;;;;;;;;;;;22.76;51.05;101535.10;2300638;76;52443;-75
2022/09/04 11:25:04;;;;;;;;;;;;;;;22.76;51.04;101530.56;2300272;76;50530;-74
2022/09/04 11:28:24;;;;;;;;;;;;;;;22.77;51.00;101521.95;2215244;79;52780;-75
2022/09/04 11:31:27;;;;;;;;;;;;;;;22.75;51.03;101519.43;2300687;76;51583;-75
2022/09/04 11:34:32;;;;;;;;;;;;;;;22.75;51.05;101524.83;2300822;77;52265;-75
2022/09/04 11:37:42;;;;;;;;;;;;;;;22.76;51.02;101522.47;2298331;76;51470;-74
2022/09/04 11:40:48;;;;;;;;;;;;;;;22.77;51.01;101523.30;2267738;77;52639;-75
2022/09/04 11:44:06;;;;;;;;;;;;;;;22.75;51.09;101519.95;2293221;76;51555;-74
2022/09/04 11:47:10;;;;;;;;;;;;;;;22.73;51.07;101517.43;2293297;77;50746;-74
2022/09/04 11:50:17;;;;;;;;;;;;;;;22.73;51.09;101512.03;2292811;76;50411;-75
2022/09/04 11:53:36;;;;;;;;;;;;;;;22.72;51.09;101511.72;2257908;77;52608;-75
2022/09/04 11:56:40;;;;;;;;;;;;;;;22.75;51.11;101507.81;2292375;77;50327;-75
2022/09/04 11:59:42;;;;;;;;;;;;;;;22.75;51.07;101504.59;2292558;76;50723;-75
2022/09/04 12:03:02;;;;;;;;;;;;;;;22.78;50.99;101500.16;2292548;77;51526;-75
2022/09/04 12:06:15;;;;;;;;;;;;;;;22.78;51.01;101500.16;2259303;77;51118;-75
2022/09/04 12:09:36;;;;;;;;;;;;;;;22.79;51.01;101501.02;2292545;76;51575;-75
2022/09/04 12:12:44;;;;;;;;;;;;;;;22.77;51.05;101498.50;2294829;76;51565;-75
2022/09/04 12:15:56;;;;;;;;;;;;;;;22.80;50.94;101491.37;2295392;77;51527;-75
2022/09/04 12:18:59;;;;;;;;;;;;;;;22.78;51.04;101481.79;2259624;76;50916;-75
2022/09/04 12:22:02;;;;;;;;;;;;;;;22.79;50.95;101495.11;2292609;76;51596;-75
2022/09/04 12:25:15;;;;;;;;;;;;;;;22.78;50.98;101483.97;2292552;77;51586;-75
2022/09/04 12:28:36;;;;;;;;;;;;;;;22.77;50.92;101476.91;2292458;77;52369;-75
2022/09/04 12:31:41;;;;;;;;;;;;;;;22.72;50.80;101487.96;2292585;76;51531;-74
2022/09/04 12:34:44;;;;;;;;;;;;;;;22.69;50.80;101484.30;2292657;77;50681;-74
2022/09/04 12:37:47;;;;;;;;;;;;;;;22.70;50.75;101490.00;2292275;77;51405;-75
2022/09/04 12:41:02;;;;;;;;;;;;;;;22.70;50.86;101488.66;2292610;76;51539;-75
2022/09/04 12:44:07;;;;;;;;;;;;;;;22.70;50.83;101490.84;2286781;76;50482;-74
2022/09/04 12:47:29;;;;;;;;;;;;;;;22.70;50.77;101483.26;2259078;77;51047;-74
2022/09/04 12:50:32;;;;;;;;;;;;;;;22.70;50.75;101482.74;2282849;76;51563;-75
2022/09/04 12:53:50;;;;;;;;;;;;;;;22.70;50.79;101492.19;2283027;77;51480;-75
2022/09/04 12:57:11;;;;;;;;;;;;;;;22.72;50.80;101490.66;2285703;76;51563;-75
2022/09/04 13:00:13;;;;;;;;;;;;;;;22.72;50.71;101492.84;2281816;77;22766;-75
2022/09/04 13:03:28;;;;;;;;;;;;;;;22.73;50.73;101489.10;2280753;78;51598;-75
2022/09/04 13:06:34;;;;;;;;;;;;;;;22.72;50.68;101492.84;2280428;77;50415;-75
2022/09/04 13:09:37;;;;;;;;;;;;;;;22.74;50.62;101492.66;2280585;77;50472;-75
2022/09/04 13:12:43;;;;;;;;;;;;;;;22.74;50.63;101493.48;2255355;78;52630;-75
2022/09/04 13:15:46;;;;;;;;;;;;;;;22.76;50.58;101487.88;2255506;77;51892;-75
2022/09/04 13:18:50;;;;;;;;;;;;;;;22.74;50.61;101485.91;2273797;78;51512;-75
2022/09/04 13:21:55;;;;;;;;;;;;;;;22.74;50.55;101488.09;2231882;79;50411;-75
2022/09/04 13:25:01;;;;;;;;;;;;;;;22.76;50.48;101491.93;2232128;78;51425;-75
2022/09/04 13:28:03;;;;;;;;;;;;;;;22.78;50.48;101486.66;2227209;78;22353;-75
2022/09/04 13:31:23;;;;;;;;;;;;;;;22.77;50.46;101486.36;2227377;78;52377;-75
2022/09/04 13:34:36;;;;;;;;;;;;;;;22.80;50.42;101496.77;2261226;77;50358;-75
2022/09/04 13:37:44;;;;;;;;;;;;;;;22.81;50.39;101497.59;2292103;76;49606;-75
2022/09/04 13:40:44;;;;;;;;;;;;;;;22.80;50.38;101490.02;2292754;76;22392;-75
2022/09/04 13:43:50;;;;;;;;;;;;;;;22.80;50.42;101496.77;2292519;77;51652;-75
2022/09/04 13:47:02;;;;;;;;;;;;;;;22.83;50.30;101500.94;2292401;77;51445;-73
2022/09/04 13:50:12;;;;;;;;;;;;;;;22.82;50.36;101496.58;2259413;77;51385;-74
2022/09/04 13:53:16;;;;;;;;;;;;;;;22.83;50.28;101494.20;2292716;76;51526;-75
2022/09/04 13:56:19;;;;;;;;;;;;;;;22.83;50.29;101507.17;2294006;77;51719;-74
2022/09/04 13:59:20;;;;;;;;;;;;;;;22.85;50.26;101501.59;2295441;76;50783;-74
2022/09/04 14:02:24;;;;;;;;;;;;;;;22.87;50.23;101513.56;2259533;77;51746;-74
2022/09/04 14:05:25;;;;;;;;;;;;;;;22.87;50.24;101509.52;2292549;76;50174;-75
2022/09/04 14:08:29;;;;;;;;;;;;;;;22.87;50.26;101509.52;2292454;77;50377;-75
2022/09/04 14:11:41;;;;;;;;;;;;;;;22.89;50.29;101502.03;2292834;76;23011;-74
2022/09/04 14:14:54;;;;;;;;;;;;;;;22.91;50.18;101502.69;2259548;77;51734;-75
2022/09/04 14:18:02;;;;;;;;;;;;;;;22.90;50.21;101507.25;2292674;77;22308;-74
2022/09/04 14:21:08;;;;;;;;;;;;;;;22.89;50.25;101510.13;2292726;76;50774;-74
2022/09/04 14:24:10;;;;;;;;;;;;;;;22.90;50.24;101505.08;2292722;77;22362;-75
2022/09/04 14:27:23;;;;;;;;;;;;;;;22.93;50.17;101504.17;2294734;76;49699;-74
2022/09/04 14:30:24;;;;;;;;;;;;;;;22.94;50.13;101503.65;2295190;76;50696;-74
2022/09/04 14:33:35;;;;;;;;;;;;;;;22.95;50.13;101503.98;2292665;77;51497;-74
2022/09/04 14:36:35;;;;;;;;;;;;;;;22.98;50.03;101506.33;2292781;76;22287;-74
2022/09/04 14:39:44;;;;;;;;;;;;;;;22.96;50.10;101504.30;2259517;77;49681;-74
2022/09/04 14:42:47;;;;;;;;;;;;;;;22.94;50.15;101507.70;2292595;77;51549;-74
2022/09/04 14:45:53;;;;;;;;;;;;;;;22.94;50.14;101511.75;2291924;77;51534;-74
2022/09/04 14:48:59;;;;;;;;;;;;;;;22.97;50.08;101519.52;2292339;76;50335;-74
2022/09/04 14:52:02;;;;;;;;;;;;;;;22.97;50.08;101522.22;2259654;77;50092;-73
2022/09/04 14:55:04;;;;;;;;;;;;;;;22.97;50.04;101519.00;2292737;76;51566;-73
2022/09/04 14:58:18;;;;;;;;;;;;;;;22.95;50.03;101512.91;2296964;77;50447;-75
2022/09/04 15:01:20;;;;;;;;;;;;;;;22.95;50.02;101523.71;2292903;76;51481;-75
2022/09/04 15:04:26;;;;;;;;;;;;;;;22.98;49.92;101522.53;2259611;77;51189;-73
2022/09/04 15:07:45;;;;;;;;;;;;;;;22.98;49.91;101522.53;2285303;76;50772;-73
2022/09/04 15:10:51;;;;;;;;;;;;;;;22.99;49.87;101518.79;2292690;76;50606;-75
2022/09/04 15:13:53;;;;;;;;;;;;;;;22.97;49.95;101516.30;2292738;77;51534;-75
2022/09/04 15:16:56;;;;;;;;;;;;;;;22.98;49.92;101513.08;2259626;77;51102;-75
2022/09/04 15:20:14;;;;;;;;;;;;;;;23.00;49.86;101515.08;2292808;76;50316;-75
2022/09/04 15:23:21;;;;;;;;;;;;;;;22.99;49.89;101512.91;2292864;77;50762;-75
2022/09/04 15:26:30;;;;;;;;;;;;;;;22.99;49.89;101512.91;2294912;76;50460;-75
2022/09/04 15:29:50;;;;;;;;;;;;;;;23.01;49.87;101514.04;2241653;77;52510;-75
2022/09/04 15:32:53;;;;;;;;;;;;;;;22.99;49.90;101513.39;2262941;77;50422;-75
2022/09/04 15:35:56;;;;;;;;;;;;;;;23.00;49.89;101516.43;2263895;77;50511;-74
2022/09/04 15:38:59;;;;;;;;;;;;;;;23.00;49.88;101517.26;2263042;76;50410;-75
2022/09/04 15:42:01;;;;;;;;;;;;;;;23.00;49.91;101514.56;2231089;78;51123;-75
2022/09/04 15:45:07;;;;;;;;;;;;;;;23.01;49.86;101509.99;2262736;78;50358;-75
2022/09/04 15:48:11;;;;;;;;;;;;;;;23.00;49.91;101515.91;2262692;77;51477;-75
2022/09/04 15:51:23;;;;;;;;;;;;;;;23.00;49.91;101516.43;2263303;77;51532;-75
2022/09/04 15:54:27;;;;;;;;;;;;;;;22.99;49.89;101514.25;2280483;76;50935;-75
2022/09/04 15:57:35;;;;;;;;;;;;;;;22.99;49.90;101521.48;2274629;76;50675;-75
2022/09/04 16:00:39;;;;;;;;;;;;;;;23.02;49.87;101524.66;2294985;76;51524;-74
2022/09/04 16:03:50;;;;;;;;;;;;;;;22.98;49.92;101517.95;2292368;77;50278;-74
2022/09/04 16:07:13;;;;;;;;;;;;;;;23.00;49.89;101526.70;2292558;77;22573;-75
2022/09/04 16:10:14;;;;;;;;;;;;;;;22.99;49.90;101519.65;2292351;76;22728;-76